Time;durP1;ratioP1;P1;durP2;ratioP2;P2;SDS_P1;SDS_P2;PMS_P1;PMS_P2;Temp;Humidity;BMP_temperature;BMP_pressure;BME280_temperature;BME280_humidity;BME280_pressure;Samples;Min_cycle;Max_cycle;Signal;HPM_P1;HPM_P2
2022/01/09 00:00:37;;;;;;;18.40;9.40;;;;;;;4.38;100.00;98774.50;5073557;28;20174;-80
2022/01/09 00:03:03;;;;;;;30.20;14.05;;;;;;;4.40;100.00;98780.44;5088376;28;20107;-80
2022/01/09 00:05:28;;;;;;;37.42;16.73;;;;;;;4.45;100.00;98801.81;5092664;28;20107;-80
2022/01/09 00:07:54;;;;;;;42.72;21.88;;;;;;;4.53;100.00;98805.88;5087043;28;20032;-80
2022/01/09 00:10:20;;;;;;;39.72;18.63;;;;;;;4.57;100.00;98816.03;5072633;28;20027;-80
2022/01/09 00:12:46;;;;;;;25.92;13.98;;;;;;;4.48;100.00;98811.19;5083736;28;20480;-80
2022/01/09 00:15:12;;;;;;;14.30;7.57;;;;;;;4.43;100.00;98850.03;5075841;28;20043;-80
2022/01/09 00:17:40;;;;;;;10.35;4.82;;;;;;;4.34;100.00;98858.03;5083186;28;20025;-80
2022/01/09 00:20:07;;;;;;;11.95;5.50;;;;;;;4.31;100.00;98878.75;5072983;28;20025;-80
2022/01/09 00:22:44;;;;;;;9.18;5.90;;;;;;;4.29;100.00;98883.13;5079034;28;20082;-80
2022/01/09 00:25:10;;;;;;;14.35;5.70;;;;;;;4.30;100.00;98902.03;5089776;28;20035;-80
2022/01/09 00:27:36;;;;;;;12.35;5.75;;;;;;;4.26;100.00;98906.44;5079218;28;20039;-80
2022/01/09 00:30:04;;;;;;;20.77;6.32;;;;;;;4.25;100.00;98906.47;5076283;28;20376;-80
2022/01/09 00:32:29;;;;;;;16.48;5.30;;;;;;;4.22;100.00;98910.00;5082489;28;20024;-80
2022/01/09 00:34:54;;;;;;;15.27;5.13;;;;;;;4.20;100.00;98932.41;5076118;28;20046;-79
2022/01/09 00:37:20;;;;;;;16.13;4.55;;;;;;;4.14;100.00;98919.66;5078114;28;20361;-80
2022/01/09 00:39:45;;;;;;;22.13;4.57;;;;;;;4.16;100.00;98941.13;5072107;28;20020;-80
2022/01/09 00:42:10;;;;;;;23.05;4.65;;;;;;;4.13;100.00;98954.09;5072886;28;20747;-80
2022/01/09 00:44:35;;;;;;;27.60;6.00;;;;;;;4.15;100.00;98957.47;5071290;28;20052;-80
2022/01/09 00:47:01;;;;;;;39.38;7.72;;;;;;;4.15;100.00;98960.03;5070002;28;20461;-80
2022/01/09 00:49:27;;;;;;;34.45;6.72;;;;;;;4.12;100.00;98968.72;5079637;28;20017;-80
2022/01/09 00:51:53;;;;;;;34.97;6.05;;;;;;;4.09;100.00;98973.13;5091900;28;20073;-80
2022/01/09 00:54:18;;;;;;;44.25;7.88;;;;;;;4.07;100.00;98980.03;5089023;28;20075;-80
2022/01/09 00:56:44;;;;;;;40.83;5.97;;;;;;;3.95;100.00;98974.31;5076983;28;20475;-80
2022/01/09 00:59:09;;;;;;;33.25;6.15;;;;;;;3.95;100.00;98976.88;5077568;28;20024;-80
2022/01/09 01:01:34;;;;;;;43.28;7.18;;;;;;;3.94;100.00;98995.81;5073501;28;20034;-80
2022/01/09 01:03:59;;;;;;;47.75;5.85;;;;;;;3.95;100.00;98996.66;5082370;28;20031;-80
2022/01/09 01:06:25;;;;;;;45.10;6.72;;;;;;;3.94;100.00;99000.97;5081278;28;20020;-81
2022/01/09 01:08:50;;;;;;;45.78;7.05;;;;;;;3.95;100.00;99019.88;5080950;28;20036;-80
2022/01/09 01:11:15;;;;;;;46.15;7.32;;;;;;;3.93;100.00;99024.25;5091284;28;20464;-81
2022/01/09 01:13:40;;;;;;;54.17;7.95;;;;;;;3.94;100.00;99028.50;5082024;28;20025;-80
2022/01/09 01:16:06;;;;;;;45.92;6.88;;;;;;;3.93;100.00;99037.97;5085169;28;20016;-80
2022/01/09 01:18:31;;;;;;;58.95;7.85;;;;;;;3.93;100.00;99037.97;5082577;28;20028;-80
2022/01/09 01:20:56;;;;;;;36.63;6.45;;;;;;;3.86;100.00;99036.44;5089446;28;20095;-80
2022/01/09 01:23:21;;;;;;;50.75;5.35;;;;;;;3.88;100.00;99051.84;5081913;28;20480;-80
2022/01/09 01:25:51;;;;;;;39.20;5.57;;;;;;;3.86;100.00;99058.78;5073039;28;20028;-80
2022/01/09 01:28:17;;;;;;;38.80;5.80;;;;;;;3.83;100.00;99064.88;5077030;28;20030;-81
2022/01/09 01:30:43;;;;;;;39.85;5.53;;;;;;;3.81;100.00;99060.63;5092074;28;20118;-80
2022/01/09 01:33:08;;;;;;;38.38;5.15;;;;;;;3.77;100.00;99065.03;5088374;28;20067;-81
2022/01/09 01:35:33;;;;;;;42.08;5.80;;;;;;;3.78;100.00;99074.44;5074130;28;20543;-81
2022/01/09 01:37:59;;;;;;;50.78;6.35;;;;;;;3.78;100.00;99077.00;5080943;28;20028;-81
2022/01/09 01:40:24;;;;;;;43.67;6.00;;;;;;;3.78;100.00;99089.06;5085847;28;20032;-81
2022/01/09 01:42:49;;;;;;;41.63;7.00;;;;;;;3.80;100.00;99101.03;5072092;28;20056;-81
2022/01/09 01:45:14;;;;;;;46.20;6.75;;;;;;;3.85;100.00;99104.34;5085809;28;20020;-81
2022/01/09 01:47:40;;;;;;;50.88;7.55;;;;;;;3.91;100.00;99123.97;5090018;28;20016;-81
2022/01/09 01:50:08;;;;;;;44.10;6.45;;;;;;;3.91;100.00;99135.13;5090901;28;20020;-81
2022/01/09 01:52:42;;;;;;;38.38;6.55;;;;;;;3.89;100.00;99126.59;5088746;28;20468;-81
2022/01/09 01:55:09;;;;;;;44.78;8.18;;;;;;;3.91;100.00;99134.28;5083596;28;20040;-81
2022/01/09 01:57:37;;;;;;;38.67;6.50;;;;;;;3.89;100.00;99136.91;5070696;28;20032;-81
2022/01/09 02:00:06;;;;;;;46.90;7.25;;;;;;;3.89;100.00;99149.81;5084024;28;20032;-81
2022/01/09 02:02:31;;;;;;;55.13;8.32;;;;;;;3.88;100.00;99150.66;5081514;28;20359;-81
2022/01/09 02:04:56;;;;;;;68.20;7.68;;;;;;;3.91;100.00;99166.06;5089306;28;20491;-81
2022/01/09 02:07:22;;;;;;;53.22;8.82;;;;;;;3.94;100.00;99170.31;5091475;28;20111;-81
2022/01/09 02:09:48;;;;;;;50.75;8.77;;;;;;;3.96;100.00;99174.56;5085650;28;20036;-81
2022/01/09 02:12:13;;;;;;;59.85;8.68;;;;;;;3.98;100.00;99174.50;5075573;28;20028;-81
2022/01/09 02:14:43;;;;;;;54.58;9.68;;;;;;;3.95;100.00;99177.16;5086442;28;20111;-81
2022/01/09 02:17:08;;;;;;;52.95;9.13;;;;;;;4.05;100.00;99185.53;5090313;28;20024;-81
2022/01/09 02:19:33;;;;;;;55.78;9.45;;;;;;;4.06;100.00;99194.97;5091356;28;20024;-81
2022/01/09 02:21:59;;;;;;;61.55;9.93;;;;;;;4.05;100.00;99198.41;5089263;28;20430;-81
2022/01/09 02:24:25;;;;;;;60.58;9.63;;;;;;;4.04;100.00;99195.00;5089159;28;20036;-81
2022/01/09 02:26:51;;;;;;;64.53;10.38;;;;;;;4.06;100.00;99198.41;5084737;28;20012;-81
2022/01/09 02:29:17;;;;;;;69.80;10.68;;;;;;;4.09;100.00;99210.38;5076851;28;20024;-81
2022/01/09 02:31:42;;;;;;;43.95;9.80;;;;;;;4.05;100.00;99198.41;5075216;28;20025;-81
2022/01/09 02:34:09;;;;;;;57.65;9.75;;;;;;;4.11;100.00;99217.19;5079842;28;20480;-81
2022/01/09 02:36:34;;;;;;;57.00;9.23;;;;;;;4.05;100.00;99216.47;5081858;28;20033;-81
2022/01/09 02:39:00;;;;;;;54.95;7.90;;;;;;;4.09;100.00;99229.28;5070339;28;20365;-81
2022/01/09 02:41:25;;;;;;;49.50;7.95;;;;;;;4.07;100.00;99235.34;5085364;28;20032;-81
2022/01/09 02:43:50;;;;;;;47.28;8.70;;;;;;;4.05;100.00;99237.94;5081856;28;20481;-81
2022/01/09 02:46:29;;;;;;;42.65;8.60;;;;;;;4.06;100.00;99254.28;5071511;28;20516;-81
2022/01/09 02:48:54;;;;;;;44.00;7.13;;;;;;;4.04;100.00;99249.16;5088647;28;20107;-82
2022/01/09 02:51:20;;;;;;;52.78;6.90;;;;;;;4.03;100.00;99251.78;5076168;28;20540;-81
2022/01/09 02:53:48;;;;;;;39.13;6.32;;;;;;;4.01;100.00;99266.41;5080811;28;20625;-81
2022/01/09 02:56:14;;;;;;;49.80;6.97;;;;;;;4.03;100.00;99282.72;5080076;28;20099;-81
2022/01/09 02:58:41;;;;;;;41.88;6.80;;;;;;;3.99;100.00;99271.63;5083493;28;20058;-81
2022/01/09 03:01:09;;;;;;;43.22;6.50;;;;;;;3.97;100.00;99294.00;5093785;28;20032;-82
2022/01/09 03:03:35;;;;;;;40.72;6.03;;;;;;;3.93;100.00;99293.22;5092117;28;20020;-81
2022/01/09 03:06:00;;;;;;;33.00;5.10;;;;;;;3.93;100.00;99298.38;5081433;28;20433;-81
2022/01/09 03:08:26;;;;;;;36.40;5.07;;;;;;;3.92;100.00;99303.56;5094508;28;20034;-81
2022/01/09 03:10:51;;;;;;;30.83;5.75;;;;;;;3.87;100.00;99321.72;5079981;28;20064;-81
2022/01/09 03:13:17;;;;;;;35.53;5.40;;;;;;;3.84;100.00;99321.78;5092930;28;20024;-81
2022/01/09 03:15:42;;;;;;;31.27;6.38;;;;;;;3.82;100.00;99328.69;5074249;28;20025;-81
2022/01/09 03:18:07;;;;;;;29.83;5.93;;;;;;;3.78;100.00;99329.63;5081755;28;20097;-81
2022/01/09 03:20:33;;;;;;;29.98;4.88;;;;;;;3.74;100.00;99335.72;5093344;28;20147;-81
2022/01/09 03:22:58;;;;;;;33.25;5.43;;;;;;;3.72;100.00;99338.31;5092498;28;20028;-81
2022/01/09 03:25:25;;;;;;;25.05;4.53;;;;;;;3.71;100.00;99346.94;5083547;28;20016;-81
2022/01/09 03:27:52;;;;;;;29.67;5.45;;;;;;;3.67;100.00;99347.88;5080504;28;20043;-81
2022/01/09 03:30:20;;;;;;;30.58;4.82;;;;;;;3.63;100.00;99366.00;5077317;28;20502;-81
2022/01/09 03:32:47;;;;;;;29.00;4.95;;;;;;;3.66;100.00;99364.25;5078652;28;20035;-81
2022/01/09 03:35:15;;;;;;;23.50;4.78;;;;;;;3.62;100.00;99369.47;5088827;28;20380;-81
2022/01/09 03:37:42;;;;;;;32.22;4.82;;;;;;;3.61;100.00;99376.34;5092210;28;20028;-81
2022/01/09 03:40:11;;;;;;;30.40;4.85;;;;;;;3.60;100.00;99378.97;5074264;28;20025;-81
2022/01/09 03:42:37;;;;;;;32.67;5.18;;;;;;;3.63;100.00;99389.19;5078860;28;20017;-82
2022/01/09 03:45:04;;;;;;;35.13;4.65;;;;;;;3.61;100.00;99398.69;5085781;28;20081;-81
2022/01/09 03:47:29;;;;;;;24.98;4.53;;;;;;;3.61;100.00;99406.44;5080682;28;20033;-81
2022/01/09 03:49:55;;;;;;;39.95;6.07;;;;;;;3.60;100.00;99405.59;5089966;28;20038;-81
2022/01/09 03:52:26;;;;;;;26.27;5.00;;;;;;;3.62;100.00;99421.84;5091878;28;20031;-81
2022/01/09 03:54:51;;;;;;;32.85;4.65;;;;;;;3.59;100.00;99411.59;5073160;28;20036;-81
2022/01/09 03:57:16;;;;;;;23.35;4.65;;;;;;;3.59;100.00;99415.91;5087087;28;20539;-81
2022/01/09 03:59:41;;;;;;;25.42;4.03;;;;;;;3.56;100.00;99418.53;5075536;28;20040;-81
2022/01/09 04:02:07;;;;;;;22.75;4.40;;;;;;;3.55;100.00;99429.72;5087593;28;20032;-81
2022/01/09 04:04:32;;;;;;;22.58;3.88;;;;;;;3.52;100.00;99435.78;5092042;28;20030;-81
2022/01/09 04:06:57;;;;;;;24.38;3.92;;;;;;;3.51;100.00;99449.53;5092902;28;20036;-81
2022/01/09 04:09:38;;;;;;;16.63;4.38;;;;;;;3.49;100.00;99456.44;5087544;28;20118;-81
2022/01/09 04:12:06;;;;;;;27.48;4.43;;;;;;;3.54;100.00;99456.38;5073016;28;20028;-82
2022/01/09 04:14:32;;;;;;;18.15;3.85;;;;;;;3.47;100.00;99464.22;5073516;28;20028;-81
2022/01/09 04:16:59;;;;;;;23.23;3.88;;;;;;;3.44;100.00;99471.97;5083577;28;20554;-81
2022/01/09 04:19:24;;;;;;;21.65;4.53;;;;;;;3.44;100.00;99466.84;5085661;28;20028;-81
2022/01/09 04:21:49;;;;;;;22.15;4.25;;;;;;;3.43;100.00;99485.75;5076564;28;20112;-82
2022/01/09 04:24:15;;;;;;;23.15;4.40;;;;;;;3.42;100.00;99496.91;5072276;28;20047;-81
2022/01/09 04:26:40;;;;;;;20.35;3.53;;;;;;;3.40;100.00;99493.53;5088509;28;20062;-81
2022/01/09 04:29:05;;;;;;;18.17;3.42;;;;;;;3.40;100.00;99495.22;5091841;28;20054;-81
2022/01/09 04:31:31;;;;;;;17.30;3.33;;;;;;;3.38;100.00;99502.16;5092174;28;20028;-81
2022/01/09 04:33:57;;;;;;;28.10;4.28;;;;;;;3.36;100.00;99499.56;5092087;28;20476;-81
2022/01/09 04:36:23;;;;;;;26.83;4.15;;;;;;;3.36;100.00;99515.03;5088175;28;20031;-82
2022/01/09 04:38:48;;;;;;;20.67;3.20;;;;;;;3.35;100.00;99504.78;5077062;28;20028;-81
2022/01/09 04:41:13;;;;;;;19.15;3.63;;;;;;;3.38;100.00;99526.19;5084458;28;20453;-82
2022/01/09 04:43:40;;;;;;;25.17;4.03;;;;;;;3.38;100.00;99536.47;5072729;28;20039;-82
2022/01/09 04:46:05;;;;;;;17.02;3.92;;;;;;;3.36;100.00;99539.94;5071776;28;20028;-82
2022/01/09 04:48:31;;;;;;;17.98;3.28;;;;;;;3.33;100.00;99537.41;5080934;28;20025;-81
2022/01/09 04:50:58;;;;;;;18.45;3.58;;;;;;;3.27;100.00;99543.53;5072450;28;20108;-82
2022/01/09 04:53:23;;;;;;;20.23;3.20;;;;;;;3.24;100.00;99553.88;5072207;28;20384;-82
2022/01/09 04:55:50;;;;;;;22.58;4.13;;;;;;;3.22;100.00;99566.75;5076916;28;20036;-81
2022/01/09 04:58:17;;;;;;;24.90;3.92;;;;;;;3.20;100.00;99568.50;5087061;28;20420;-81
2022/01/09 05:00:43;;;;;;;28.38;4.82;;;;;;;3.20;100.00;99572.81;5072637;28;20036;-81
2022/01/09 05:03:10;;;;;;;23.40;3.40;;;;;;;3.19;100.00;99578.84;5091956;28;20146;-82
2022/01/09 05:05:35;;;;;;;17.70;3.10;;;;;;;3.17;100.00;99580.56;5089835;28;20020;-81
2022/01/09 05:08:00;;;;;;;19.83;3.50;;;;;;;3.21;100.00;99590.81;5092001;28;20030;-82
2022/01/09 05:10:26;;;;;;;17.90;3.65;;;;;;;3.23;100.00;99599.38;5088492;28;20028;-82
2022/01/09 05:12:51;;;;;;;20.08;3.67;;;;;;;3.27;100.00;99605.34;5091133;28;20089;-82
2022/01/09 05:15:19;;;;;;;16.13;3.75;;;;;;;3.30;100.00;99613.00;5086917;28;20021;-81
2022/01/09 05:17:44;;;;;;;26.00;3.92;;;;;;;3.31;100.00;99621.63;5072099;28;20229;-81
2022/01/09 05:20:10;;;;;;;16.20;3.72;;;;;;;3.25;100.00;99638.00;5072083;28;20100;-81
2022/01/09 05:22:35;;;;;;;21.70;3.78;;;;;;;3.16;100.00;99627.81;5072610;28;20111;-81
2022/01/09 05:25:06;;;;;;;18.90;4.38;;;;;;;3.13;100.00;99636.41;5076322;28;20070;-81
2022/01/09 05:27:32;;;;;;;30.70;4.47;;;;;;;3.10;100.00;99649.31;5088304;28;20436;-81
2022/01/09 05:29:58;;;;;;;20.83;3.90;;;;;;;3.10;100.00;99658.78;5078717;28;20491;-81
2022/01/09 05:32:23;;;;;;;25.02;5.00;;;;;;;3.08;100.00;99657.97;5075806;28;20028;-81
2022/01/09 05:34:49;;;;;;;18.10;3.95;;;;;;;3.07;100.00;99656.25;5088600;28;20043;-81
2022/01/09 05:37:14;;;;;;;25.00;4.13;;;;;;;3.04;100.00;99650.28;5091461;28;20028;-81
2022/01/09 05:39:40;;;;;;;29.35;4.75;;;;;;;3.06;100.00;99657.97;5089884;28;20053;-81
2022/01/09 05:42:08;;;;;;;20.27;4.43;;;;;;;3.03;100.00;99669.16;5085585;28;20081;-81
2022/01/09 05:44:34;;;;;;;37.08;5.45;;;;;;;3.03;100.00;99665.72;5091372;28;20464;-81
2022/01/09 05:47:00;;;;;;;28.10;4.38;;;;;;;3.02;100.00;99674.31;5088452;28;20240;-80
2022/01/09 05:49:25;;;;;;;24.55;4.25;;;;;;;2.96;100.00;99672.66;5078259;28;20059;-81
2022/01/09 05:51:50;;;;;;;27.13;5.47;;;;;;;2.98;100.00;99678.66;5090335;28;20105;-81
2022/01/09 05:54:16;;;;;;;21.75;4.43;;;;;;;2.97;100.00;99679.50;5086980;28;20496;-81
2022/01/09 05:56:41;;;;;;;28.88;5.28;;;;;;;2.97;100.00;99689.81;5073771;28;20025;-81
2022/01/09 05:59:06;;;;;;;24.70;4.82;;;;;;;2.93;100.00;99680.41;5084711;28;20477;-81
2022/01/09 06:01:32;;;;;;;25.85;4.90;;;;;;;2.92;100.00;99690.75;5079913;28;20028;-81
2022/01/09 06:03:57;;;;;;;24.92;4.53;;;;;;;2.95;100.00;99693.28;5071408;28;20637;-81
2022/01/09 06:06:22;;;;;;;26.83;4.03;;;;;;;2.91;100.00;99684.75;5072679;28;20037;-81
2022/01/09 06:08:47;;;;;;;20.65;4.40;;;;;;;2.92;100.00;99694.16;5071987;28;20119;-81
2022/01/09 06:11:13;;;;;;;18.58;4.90;;;;;;;2.92;100.00;99707.03;5085744;28;20031;-81
2022/01/09 06:13:38;;;;;;;21.50;4.85;;;;;;;2.89;100.00;99706.22;5074936;28;20043;-81
2022/01/09 06:16:04;;;;;;;26.98;4.72;;;;;;;2.87;100.00;99710.53;5073842;28;20396;-81
2022/01/09 06:18:29;;;;;;;27.13;4.50;;;;;;;2.84;100.00;99719.13;5081921;28;20028;-81
2022/01/09 06:20:56;;;;;;;28.10;4.32;;;;;;;2.87;100.00;99718.25;5088989;28;20040;-81
2022/01/09 06:23:21;;;;;;;25.90;4.82;;;;;;;2.85;100.00;99709.72;5082206;28;20028;-81
2022/01/09 06:25:48;;;;;;;30.58;4.95;;;;;;;2.86;100.00;99725.13;5082472;28;20067;-81
2022/01/09 06:28:13;;;;;;;25.27;4.70;;;;;;;2.86;100.00;99722.56;5078400;28;20024;-81
2022/01/09 06:30:39;;;;;;;22.55;3.88;;;;;;;2.83;100.00;99719.16;5089412;28;20107;-81
2022/01/09 06:33:04;;;;;;;32.08;5.68;;;;;;;2.89;100.00;99732.81;5094950;28;20020;-81
2022/01/09 06:35:30;;;;;;;27.27;4.15;;;;;;;2.87;100.00;99729.41;5095396;28;20073;-81
2022/01/09 06:37:55;;;;;;;16.10;3.47;;;;;;;2.86;100.00;99729.44;5092312;28;20531;-81
2022/01/09 06:40:20;;;;;;;21.17;4.18;;;;;;;2.86;100.00;99743.16;5093261;28;20085;-81
2022/01/09 06:42:46;;;;;;;22.85;4.10;;;;;;;2.87;100.00;99751.72;5093234;28;20472;-81
2022/01/09 06:45:12;;;;;;;27.65;3.78;;;;;;;2.86;100.00;99752.59;5088990;28;20040;-81
2022/01/09 06:47:37;;;;;;;19.88;3.33;;;;;;;2.78;100.00;99740.66;5078110;28;20024;-81
2022/01/09 06:50:03;;;;;;;22.92;4.40;;;;;;;2.85;100.00;99754.31;5092935;28;20524;-81
2022/01/09 06:52:29;;;;;;;18.55;4.00;;;;;;;2.82;100.00;99751.78;5093766;28;20032;-81
2022/01/09 06:54:54;;;;;;;22.05;4.05;;;;;;;2.85;100.00;99766.34;5079785;28;20044;-81
2022/01/09 06:57:19;;;;;;;21.98;3.78;;;;;;;2.84;100.00;99762.88;5087958;28;20017;-81
2022/01/09 06:59:44;;;;;;;17.70;3.35;;;;;;;2.90;100.00;99769.72;5093103;28;20142;-81
2022/01/09 07:02:10;;;;;;;20.20;4.15;;;;;;;2.90;100.00;99774.84;5092179;28;20040;-81
2022/01/09 07:04:35;;;;;;;21.65;4.22;;;;;;;2.92;100.00;99781.72;5092124;28;20467;-80
2022/01/09 07:07:00;;;;;;;24.02;3.55;;;;;;;2.90;100.00;99780.84;5092466;28;20084;-81
2022/01/09 07:09:26;;;;;;;16.83;3.33;;;;;;;2.91;100.00;99787.72;5086717;28;20024;-81
2022/01/09 07:11:51;;;;;;;17.63;3.60;;;;;;;2.84;100.00;99791.19;5081713;28;20034;-81
2022/01/09 07:14:16;;;;;;;24.98;3.60;;;;;;;2.83;100.00;99797.22;5093335;28;20031;-81
2022/01/09 07:16:42;;;;;;;23.83;4.18;;;;;;;2.85;100.00;99812.69;5094556;28;20387;-80
2022/01/09 07:19:07;;;;;;;27.10;4.03;;;;;;;2.85;100.00;99816.09;5087262;28;20039;-81
2022/01/09 07:21:32;;;;;;;27.58;4.32;;;;;;;2.89;100.00;99825.50;5092422;28;20024;-81
2022/01/09 07:23:57;;;;;;;28.50;4.47;;;;;;;2.84;100.00;99816.09;5092164;28;20530;-80
2022/01/09 07:26:23;;;;;;;30.42;4.82;;;;;;;2.89;100.00;99840.94;5086548;28;20062;-81
2022/01/09 07:28:48;;;;;;;28.45;5.38;;;;;;;2.90;100.00;99831.50;5075292;28;20029;-81
2022/01/09 07:31:13;;;;;;;26.80;4.28;;;;;;;2.90;100.00;99836.63;5083196;28;20127;-81
2022/01/09 07:33:39;;;;;;;25.33;4.28;;;;;;;2.86;100.00;99833.25;5075528;28;20040;-81
2022/01/09 07:36:04;;;;;;;31.38;5.20;;;;;;;2.81;100.00;99838.44;5090615;28;20032;-81
2022/01/09 07:38:29;;;;;;;30.60;3.97;;;;;;;2.76;100.00;99836.75;5091132;28;20024;-81
2022/01/09 07:40:55;;;;;;;28.50;4.60;;;;;;;2.67;100.00;99827.38;5084664;28;20028;-81
2022/01/09 07:43:20;;;;;;;21.88;4.28;;;;;;;2.65;100.00;99846.25;5083108;28;20467;-81
2022/01/09 07:45:46;;;;;;;25.20;4.05;;;;;;;2.67;100.00;99850.53;5073861;28;20032;-82
2022/01/09 07:48:12;;;;;;;25.05;4.18;;;;;;;2.67;100.00;99840.25;5078297;28;20028;-81
2022/01/09 07:50:37;;;;;;;29.05;4.53;;;;;;;2.68;100.00;99856.53;5083474;28;20035;-81
2022/01/09 07:53:02;;;;;;;22.45;3.70;;;;;;;2.62;100.00;99864.31;5074518;28;20494;-81
2022/01/09 07:55:28;;;;;;;14.85;3.25;;;;;;;2.57;100.00;99862.63;5072207;28;20083;-82
2022/01/09 07:57:53;;;;;;;20.02;3.13;;;;;;;2.53;100.00;99866.06;5077525;28;20033;-81
2022/01/09 08:00:20;;;;;;;17.88;3.10;;;;;;;2.53;100.00;99876.38;5073768;28;20028;-81
2022/01/09 08:02:46;;;;;;;15.07;2.75;;;;;;;2.52;100.00;99886.69;5072971;28;20036;-81
2022/01/09 08:05:13;;;;;;;14.07;2.90;;;;;;;2.44;100.00;99873.84;5075233;28;20036;-81
2022/01/09 08:07:39;;;;;;;11.35;2.75;;;;;;;2.45;100.00;99887.56;5090613;28;20024;-81
2022/01/09 08:10:05;;;;;;;15.07;3.38;;;;;;;2.45;100.00;99888.44;5088846;28;20025;-81
2022/01/09 08:12:31;;;;;;;15.30;3.20;;;;;;;2.46;100.00;99897.00;5075510;28;20029;-81
2022/01/09 08:14:56;;;;;;;15.25;2.63;;;;;;;2.45;100.00;99890.13;5091241;28;20082;-81
2022/01/09 08:17:21;;;;;;;12.20;2.53;;;;;;;2.41;100.00;99889.28;5084753;28;20025;-81
2022/01/09 08:19:47;;;;;;;20.27;3.05;;;;;;;2.44;100.00;99897.00;5073560;28;20025;-81
2022/01/09 08:22:12;;;;;;;12.30;2.75;;;;;;;2.46;100.00;99903.00;5072049;28;20021;-81
2022/01/09 08:24:39;;;;;;;13.80;2.58;;;;;;;2.48;100.00;99916.69;5089517;28;20028;-81
2022/01/09 08:27:05;;;;;;;13.82;2.80;;;;;;;2.49;100.00;99918.44;5078774;28;20556;-81
2022/01/09 08:29:30;;;;;;;12.60;3.08;;;;;;;2.53;100.00;99925.25;5087074;28;20028;-81
2022/01/09 08:31:55;;;;;;;7.25;2.90;;;;;;;2.55;100.00;99913.25;5092942;28;20111;-81
2022/01/09 08:34:21;;;;;;;15.18;3.15;;;;;;;2.58;100.00;99917.50;5091166;28;20498;-81
2022/01/09 08:36:46;;;;;;;27.25;3.53;;;;;;;2.61;100.00;99924.34;5087226;28;20024;-81
2022/01/09 08:39:11;;;;;;;20.60;3.20;;;;;;;2.63;100.00;99925.22;5073875;28;20032;-81
2022/01/09 08:41:37;;;;;;;20.00;3.10;;;;;;;2.64;100.00;99916.63;5073304;28;20060;-81
2022/01/09 08:44:04;;;;;;;12.82;3.00;;;;;;;2.72;100.00;99927.75;5071321;28;20032;-81
2022/01/09 08:46:30;;;;;;;16.90;3.55;;;;;;;2.76;100.00;99932.00;5075016;28;20422;-81
2022/01/09 08:48:56;;;;;;;18.30;4.07;;;;;;;2.79;100.00;99931.97;5074703;28;20028;-81
2022/01/09 08:51:21;;;;;;;22.90;4.40;;;;;;;2.79;100.00;99934.56;5086164;28;20069;-81
2022/01/09 08:53:50;;;;;;;22.20;4.13;;;;;;;2.73;100.00;99943.16;5092362;28;20031;-81
2022/01/09 08:56:18;;;;;;;19.90;3.67;;;;;;;2.71;100.00;99944.88;5086465;28;20069;-81
2022/01/09 08:58:44;;;;;;;16.98;4.25;;;;;;;2.74;100.00;99956.88;5091316;28;20028;-81
2022/01/09 09:01:09;;;;;;;32.65;4.72;;;;;;;2.76;100.00;99957.72;5088752;28;20024;-81
2022/01/09 09:03:36;;;;;;;19.90;4.20;;;;;;;2.82;100.00;99960.28;5081197;28;20027;-81
2022/01/09 09:06:02;;;;;;;27.90;4.65;;;;;;;2.85;100.00;99965.41;5088483;28;20016;-81
2022/01/09 09:08:27;;;;;;;19.35;3.70;;;;;;;2.81;100.00;99971.41;5090903;28;20438;-81
2022/01/09 09:10:52;;;;;;;24.50;4.43;;;;;;;2.80;100.00;99974.88;5087809;28;20024;-81
2022/01/09 09:13:17;;;;;;;18.20;4.15;;;;;;;2.88;100.00;99967.97;5078282;28;20044;-81
2022/01/09 09:15:43;;;;;;;30.55;5.13;;;;;;;3.05;100.00;99971.28;5071999;28;20548;-82
2022/01/09 09:18:08;;;;;;;24.92;4.80;;;;;;;3.17;100.00;99969.47;5081518;28;20019;-80
2022/01/09 09:20:33;;;;;;;32.90;5.18;;;;;;;3.22;100.00;99973.72;5073686;28;20598;-81
2022/01/09 09:22:58;;;;;;;24.83;4.55;;;;;;;3.28;100.00;99984.00;5080500;28;20036;-81
2022/01/09 09:25:26;;;;;;;22.45;4.38;;;;;;;3.29;100.00;100000.28;5078479;28;20437;-80
2022/01/09 09:27:52;;;;;;;17.67;4.70;;;;;;;3.23;100.00;99995.19;5086389;28;20472;-80
2022/01/09 09:30:17;;;;;;;22.70;4.05;;;;;;;3.24;100.00;99999.50;5078095;28;20023;-80
2022/01/09 09:32:43;;;;;;;23.90;4.55;;;;;;;3.14;100.00;99996.13;5070985;28;20438;-81
2022/01/09 09:35:09;;;;;;;26.45;4.00;;;;;;;3.13;100.00;100001.28;5082517;28;20020;-80
2022/01/09 09:37:34;;;;;;;18.08;3.95;;;;;;;3.09;100.00;100010.72;5085686;28;20372;-81
2022/01/09 09:40:00;;;;;;;17.88;3.95;;;;;;;3.08;100.00;100008.19;5076297;28;20069;-80
2022/01/09 09:42:26;;;;;;;24.25;4.38;;;;;;;3.11;100.00;100010.75;5086452;28;20116;-80
2022/01/09 09:44:51;;;;;;;20.90;4.78;;;;;;;3.22;100.00;100014.09;5082468;28;20539;-80
2022/01/09 09:47:19;;;;;;;24.15;4.15;;;;;;;3.32;100.00;100023.47;5071305;28;20514;-80
2022/01/09 09:49:46;;;;;;;21.30;4.38;;;;;;;3.38;100.00;100031.16;5083168;28;20498;-83
2022/01/09 09:52:15;;;;;;;24.20;4.30;;;;;;;3.47;100.00;100035.41;5075444;28;20036;-80
2022/01/09 09:54:41;;;;;;;17.83;4.70;;;;;;;3.58;100.00;100032.72;5076802;28;20042;-81
2022/01/09 09:57:06;;;;;;;24.70;4.80;;;;;;;3.70;100.00;100033.50;5071314;28;20039;-81
2022/01/09 09:59:37;;;;;;;21.48;3.78;;;;;;;3.78;100.00;100041.16;5071778;28;20095;-81
2022/01/09 10:02:11;;;;;;;27.48;4.35;;;;;;;3.85;100.00;100037.63;5071482;28;20510;-81
2022/01/09 10:04:36;;;;;;;27.65;4.90;;;;;;;4.04;100.00;100038.34;5072164;28;20020;-81
2022/01/09 10:07:02;;;;;;;26.58;4.90;;;;;;;4.10;100.00;100043.44;5091698;28;20460;-81
2022/01/09 10:09:28;;;;;;;26.67;4.90;;;;;;;4.17;100.00;100044.22;5085729;28;20035;-81
2022/01/09 10:12:00;;;;;;;28.80;4.50;;;;;;;4.09;100.00;100038.31;5089892;28;20024;-81
2022/01/09 10:14:32;;;;;;;22.95;4.75;;;;;;;4.10;100.00;100042.59;5078016;28;20018;-81
2022/01/09 10:17:16;;;;;;;25.50;4.32;;;;;;;4.18;100.00;100049.34;5073989;28;20029;-81
2022/01/09 10:20:20;;;;;;;24.67;4.63;;;;;;;4.24;100.00;100045.88;5076135;28;20036;-81
2022/01/09 10:22:50;;;;;;;17.17;3.93;;;;;;;4.12;100.00;100038.25;4988943;28;20026;-81
2022/01/09 10:25:37;;;;;;;21.38;3.88;;;;;;;4.00;100.00;100049.56;4987387;28;20026;-81
2022/01/09 10:28:14;;;;;;;25.92;4.55;;;;;;;3.95;100.00;100053.88;5042066;28;20477;-82
2022/01/09 10:30:51;;;;;;;22.17;4.07;;;;;;;4.04;100.00;100051.22;5072477;28;20408;-81
2022/01/09 10:33:25;;;;;;;24.83;4.15;;;;;;;4.12;100.00;100057.19;5081961;28;20503;-81
2022/01/09 10:35:51;;;;;;;26.83;3.55;;;;;;;4.10;100.00;100058.06;5072058;28;20047;-81
2022/01/09 10:38:29;;;;;;;18.77;4.07;;;;;;;4.11;100.00;100058.03;5087779;28;20116;-81
2022/01/09 10:40:58;;;;;;;20.55;3.78;;;;;;;4.13;100.00;100060.63;5077561;28;20038;-81
2022/01/09 10:43:40;;;;;;;19.05;3.78;;;;;;;4.17;100.00;100064.88;5085896;28;20032;-81
2022/01/09 10:46:05;;;;;;;20.05;4.18;;;;;;;4.04;100.00;100063.28;5083605;28;20028;-81
2022/01/09 10:48:41;;;;;;;22.73;4.18;;;;;;;3.96;100.00;100069.38;5071046;28;20493;-81
2022/01/09 10:51:08;;;;;;;16.70;3.72;;;;;;;4.04;100.00;100068.44;5074679;28;20020;-81
2022/01/09 10:53:36;;;;;;;20.83;4.50;;;;;;;4.21;100.00;100076.84;5071202;28;20067;-81
2022/01/09 10:56:21;;;;;;;19.00;3.90;;;;;;;4.28;100.00;100069.91;5079642;28;20040;-81
2022/01/09 10:58:51;;;;;;;19.40;3.28;;;;;;;4.30;100.00;100081.94;5076311;28;20369;-81
2022/01/09 11:01:23;;;;;;;20.92;3.95;;;;;;;4.29;100.00;100067.34;5072664;28;20032;-81
2022/01/09 11:04:09;;;;;;;14.18;3.42;;;;;;;4.35;100.00;100084.47;5083552;28;20476;-82
2022/01/09 11:06:38;;;;;;;19.77;3.60;;;;;;;4.30;100.00;100083.66;5077458;28;20519;-81
2022/01/09 11:09:05;;;;;;;21.80;3.70;;;;;;;4.22;100.00;100078.59;5076662;28;20025;-81
2022/01/09 11:11:36;;;;;;;14.38;3.20;;;;;;;4.17;100.00;100088.09;5079873;28;20423;-81
2022/01/09 11:14:04;;;;;;;14.70;3.50;;;;;;;4.21;100.00;100092.34;5074327;28;20020;-81
2022/01/09 11:16:35;;;;;;;9.77;2.70;;;;;;;4.23;100.00;100093.19;5074757;28;20095;-81
2022/01/09 11:19:11;;;;;;;17.45;2.95;;;;;;;4.33;100.00;100094.81;5074610;28;20383;-81
2022/01/09 11:21:41;;;;;;;17.10;4.15;;;;;;;4.28;100.00;100091.41;5082596;28;20056;-81